Time,TemperatureF,DewpointF,PressureIn,WindDirection,WindDirectionDegrees,WindSpeedMPH,WindSpeedGustMPH,Humidity,HourlyPrecipIn,Conditions,Clouds,dailyrainin,SoftwareType,DateUTC
2013-04-15 00:00:00,62.6,53.8,29.99,SW,214,0.0,0.0,73,0.01,,---,0.01,VWS V14.01,2013-04-15 04:00:00,
2013-04-15 00:05:00,62.1,54.1,29.99,SW,214,0.0,0.0,75,0.01,,---,0.00,VWS V14.01,2013-04-15 04:05:00,
2013-04-15 00:10:00,61.8,54.2,29.99,SW,214,0.0,1.0,76,0.01,,---,0.00,VWS V14.01,2013-04-15 04:10:00,
2013-04-15 00:15:00,61.3,53.7,29.99,SW,214,0.0,1.0,76,0.01,,---,0.00,VWS V14.01,2013-04-15 04:15:00,
2013-04-15 00:20:00,61.0,53.8,29.99,SW,214,0.0,0.0,77,0.01,,---,0.00,VWS V14.01,2013-04-15 04:20:00,
2013-04-15 00:25:00,60.7,53.8,29.99,SW,214,0.0,0.0,78,0.01,,---,0.00,VWS V14.01,2013-04-15 04:25:00,
2013-04-15 00:30:00,60.5,54.0,29.99,SW,214,0.0,1.0,79,0.01,,---,0.00,VWS V14.01,2013-04-15 04:30:00,
2013-04-15 00:35:00,60.2,53.7,29.99,SW,214,0.0,0.0,79,0.01,,---,0.00,VWS V14.01,2013-04-15 04:35:00,
2013-04-15 00:40:00,60.1,53.9,29.98,SSW,207,0.0,2.0,80,0.01,,---,0.00,VWS V14.01,2013-04-15 04:40:00,
2013-04-15 00:45:00,59.8,54.0,29.99,SSW,207,0.0,2.0,81,0.01,,---,0.00,VWS V14.01,2013-04-15 04:45:00,
2013-04-15 00:50:00,59.6,53.8,30.00,SSW,207,0.0,1.0,81,0.01,,---,0.00,VWS V14.01,2013-04-15 04:50:00,
2013-04-15 00:55:00,59.5,54.0,30.00,SSW,207,0.0,1.0,82,0.01,,---,0.00,VWS V14.01,2013-04-15 04:55:00,
2013-04-15 01:00:00,59.3,54.2,30.00,SSW,207,0.0,1.0,83,0.01,,---,0.00,VWS V14.01,2013-04-15 05:00:00,
2013-04-15 01:05:00,59.2,54.0,30.00,SSW,207,0.0,0.0,83,0.00,,---,0.00,VWS V14.01,2013-04-15 05:05:00,
2013-04-15 01:10:00,59.0,53.8,29.99,SSW,195,0.0,2.0,83,0.00,,---,0.00,VWS V14.01,2013-04-15 05:10:00,
2013-04-15 01:15:00,58.9,53.8,29.99,SSW,195,0.0,2.0,83,0.00,,---,0.00,VWS V14.01,2013-04-15 05:15:00,
2013-04-15 01:20:00,58.7,53.9,29.99,SSW,195,0.0,1.0,84,0.01,,---,0.01,VWS V14.01,2013-04-15 05:20:00,
2013-04-15 01:25:00,58.6,53.8,30.00,SSW,195,0.0,1.0,84,0.01,,---,0.01,VWS V14.01,2013-04-15 05:25:00,
2013-04-15 01:30:00,58.6,53.8,30.00,WNW,297,0.0,3.0,84,0.01,,---,0.01,VWS V14.01,2013-04-15 05:30:00,
2013-04-15 01:35:00,58.4,53.9,29.99,NW,322,0.0,2.0,85,0.01,,---,0.01,VWS V14.01,2013-04-15 05:35:00,
2013-04-15 01:40:00,58.3,53.8,29.99,NW,322,0.0,2.0,85,0.01,,---,0.01,VWS V14.01,2013-04-15 05:40:00,
2013-04-15 01:45:00,58.3,53.8,29.98,NW,322,0.0,2.0,85,0.01,,---,0.01,VWS V14.01,2013-04-15 05:45:00,
2013-04-15 01:50:00,58.1,53.6,29.98,NW,322,0.0,0.0,85,0.01,,---,0.01,VWS V14.01,2013-04-15 05:50:00,
2013-04-15 01:55:00,58.1,53.6,29.98,NW,322,0.0,0.0,85,0.01,,---,0.01,VWS V14.01,2013-04-15 05:55:00,
2013-04-15 02:00:00,58.0,53.5,29.98,NW,322,0.0,0.0,85,0.01,,---,0.01,VWS V14.01,2013-04-15 06:00:00,
2013-04-15 02:05:00,58.0,53.5,29.98,NW,322,0.0,0.0,85,0.01,,---,0.01,VWS V14.01,2013-04-15 06:05:00,
2013-04-15 02:10:00,58.0,53.5,29.97,NW,322,0.0,0.0,85,0.01,,---,0.01,VWS V14.01,2013-04-15 06:10:00,
2013-04-15 02:15:00,57.8,53.3,29.96,NW,322,0.0,0.0,85,0.01,,---,0.01,VWS V14.01,2013-04-15 06:15:00,
2013-04-15 02:20:00,57.8,53.7,29.95,NW,322,0.0,0.0,86,0.01,,---,0.01,VWS V14.01,2013-04-15 06:20:00,
2013-04-15 02:25:00,57.8,53.7,29.97,NW,322,0.0,0.0,86,0.01,,---,0.01,VWS V14.01,2013-04-15 06:25:00,
2013-04-15 02:30:00,57.8,53.7,29.97,NW,322,0.0,2.0,86,0.01,,---,0.01,VWS V14.01,2013-04-15 06:30:00,
2013-04-15 02:35:00,57.6,53.5,29.98,NW,322,0.0,0.0,86,0.00,,---,0.01,VWS V14.01,2013-04-15 06:35:00,
2013-04-15 02:40:00,57.6,53.5,29.97,NW,322,0.0,0.0,86,0.00,,---,0.01,VWS V14.01,2013-04-15 06:40:00,
2013-04-15 02:45:00,57.6,53.8,29.96,NW,322,0.0,0.0,87,0.00,,---,0.01,VWS V14.01,2013-04-15 06:45:00,
2013-04-15 02:50:00,57.6,53.8,29.97,NW,322,0.0,0.0,87,0.00,,---,0.01,VWS V14.01,2013-04-15 06:50:00,
2013-04-15 02:55:00,57.6,53.8,29.96,NW,322,0.0,0.0,87,0.00,,---,0.01,VWS V14.01,2013-04-15 06:55:00,
2013-04-15 03:00:00,57.6,53.8,29.97,NW,322,0.0,0.0,87,0.00,,---,0.01,VWS V14.01,2013-04-15 07:00:00,
2013-04-15 03:05:00,57.5,53.7,29.97,NW,322,0.0,2.0,87,0.00,,---,0.01,VWS V14.01,2013-04-15 07:05:00,
2013-04-15 03:41:00,57.2,53.7,29.98,North,357,1.0,9.0,88,0.05,,---,0.06,VWS V14.01,2013-04-15 07:41:00,
2013-04-15 03:46:00,57.0,53.5,29.99,NNW,347,0.0,2.0,88,0.06,,---,0.07,VWS V14.01,2013-04-15 07:46:00,
2013-04-15 03:48:00,57.0,53.5,29.99,NNW,347,3.0,3.0,88,0.06,,---,0.07,VWS V14.01,2013-04-15 07:48:00,
2013-04-15 03:50:00,57.0,53.5,29.99,NNW,347,1.0,3.0,88,0.06,,---,0.07,VWS V14.01,2013-04-15 07:50:00,
2013-04-15 03:55:00,57.0,53.5,29.98,North,354,3.0,5.0,88,0.06,,---,0.07,VWS V14.01,2013-04-15 07:55:00,
2013-04-15 04:00:00,56.9,53.7,29.98,NNW,343,0.0,5.0,89,0.06,,---,0.07,VWS V14.01,2013-04-15 08:00:00,
2013-04-15 04:05:00,56.9,53.7,29.98,NNW,343,0.0,2.0,89,0.07,,---,0.08,VWS V14.01,2013-04-15 08:05:00,
2013-04-15 04:10:00,56.9,53.7,29.98,NNE,22,0.0,3.0,89,0.08,,---,0.09,VWS V14.01,2013-04-15 08:10:00,
2013-04-15 04:15:00,56.7,53.5,29.98,North,10,0.0,4.0,89,0.08,,---,0.09,VWS V14.01,2013-04-15 08:15:00,
2013-04-15 04:20:00,56.7,53.8,29.98,North,10,0.0,1.0,90,0.07,,---,0.09,VWS V14.01,2013-04-15 08:20:00,
2013-04-15 04:25:00,56.7,53.8,29.98,NNE,12,0.0,3.0,90,0.07,,---,0.09,VWS V14.01,2013-04-15 08:25:00,
2013-04-15 04:30:00,56.6,53.7,29.98,NE,43,1.0,4.0,90,0.08,,---,0.10,VWS V14.01,2013-04-15 08:30:00,
2013-04-15 04:35:00,56.6,53.7,29.98,NE,43,0.0,3.0,90,0.05,,---,0.10,VWS V14.01,2013-04-15 08:35:00,
2013-04-15 04:40:00,56.5,53.6,29.98,North,356,0.0,3.0,90,0.05,,---,0.10,VWS V14.01,2013-04-15 08:40:00,
2013-04-15 04:45:00,56.5,53.9,29.98,North,356,0.0,3.0,91,0.06,,---,0.11,VWS V14.01,2013-04-15 08:45:00,
2013-04-15 04:50:00,56.5,53.9,29.98,North,356,0.0,4.0,91,0.04,,---,0.11,VWS V14.01,2013-04-15 08:50:00,
2013-04-15 04:55:00,56.5,53.9,29.98,North,356,0.0,4.0,91,0.04,,---,0.11,VWS V14.01,2013-04-15 08:55:00,
2013-04-15 05:00:00,56.5,53.9,29.98,North,356,0.0,4.0,91,0.04,,---,0.11,VWS V14.01,2013-04-15 09:00:00,
2013-04-15 05:05:00,56.5,53.9,29.98,North,356,0.0,0.0,91,0.04,,---,0.11,VWS V14.01,2013-04-15 09:05:00,
2013-04-15 05:10:00,56.3,53.7,29.98,North,356,0.0,1.0,91,0.05,,---,0.12,VWS V14.01,2013-04-15 09:10:00,
2013-04-15 05:15:00,56.3,53.7,29.98,North,356,0.0,1.0,91,0.05,,---,0.12,VWS V14.01,2013-04-15 09:15:00,
2013-04-15 05:20:00,56.3,54.0,29.98,North,356,0.0,1.0,92,0.03,,---,0.12,VWS V14.01,2013-04-15 09:20:00,
2013-04-15 05:25:00,56.3,55.2,29.98,North,356,0.0,1.0,96,0.03,,---,0.12,VWS V14.01,2013-04-15 09:25:00,
2013-04-15 05:30:00,56.2,53.9,29.98,North,356,0.0,1.0,92,0.03,,---,0.12,VWS V14.01,2013-04-15 09:30:00,
2013-04-15 05:35:00,56.2,53.9,29.98,North,356,0.0,1.0,92,0.02,,---,0.12,VWS V14.01,2013-04-15 09:35:00,
2013-04-15 05:40:00,56.2,53.9,29.98,North,356,0.0,1.0,92,0.02,,---,0.12,VWS V14.01,2013-04-15 09:40:00,
2013-04-15 05:45:00,56.2,53.9,29.98,North,357,0.0,1.0,92,0.03,,---,0.13,VWS V14.01,2013-04-15 09:45:00,
2013-04-15 05:50:00,56.0,53.7,29.98,North,357,0.0,0.0,92,0.02,,---,0.13,VWS V14.01,2013-04-15 09:50:00,
2013-04-15 05:55:00,56.0,53.7,29.99,North,357,0.0,1.0,92,0.02,,---,0.13,VWS V14.01,2013-04-15 09:55:00,
2013-04-15 06:00:00,56.0,53.7,29.99,North,357,0.0,1.0,92,0.02,,---,0.13,VWS V14.01,2013-04-15 10:00:00,
2013-04-15 06:05:00,56.0,53.7,29.99,North,357,0.0,1.0,92,0.02,,---,0.13,VWS V14.01,2013-04-15 10:05:00,
2013-04-15 06:10:00,55.9,53.6,29.99,North,357,0.0,1.0,92,0.02,,---,0.13,VWS V14.01,2013-04-15 10:10:00,
2013-04-15 06:15:00,55.9,53.6,29.99,North,357,0.0,1.0,92,0.02,,---,0.13,VWS V14.01,2013-04-15 10:15:00,
2013-04-15 06:20:00,55.9,53.6,29.99,North,357,0.0,2.0,92,0.01,,---,0.13,VWS V14.01,2013-04-15 10:20:00,
2013-04-15 06:25:00,55.9,53.9,30.00,North,357,0.0,2.0,93,0.02,,---,0.14,VWS V14.01,2013-04-15 10:25:00,
2013-04-15 06:30:00,55.9,53.9,30.00,North,357,0.0,2.0,93,0.02,,---,0.14,VWS V14.01,2013-04-15 10:30:00,
2013-04-15 06:35:00,55.9,53.9,30.00,North,357,0.0,2.0,93,0.02,,---,0.14,VWS V14.01,2013-04-15 10:35:00,
2013-04-15 06:40:00,56.0,54.0,30.00,North,357,0.0,2.0,93,0.03,,---,0.15,VWS V14.01,2013-04-15 10:40:00,
2013-04-15 06:45:00,56.0,54.0,30.00,North,357,0.0,2.0,93,0.04,,---,0.16,VWS V14.01,2013-04-15 10:45:00,
2013-04-15 06:50:00,56.0,54.0,30.00,North,357,0.0,0.0,93,0.04,,---,0.17,VWS V14.01,2013-04-15 10:50:00,
2013-04-15 06:55:00,56.0,54.0,30.00,North,357,0.0,0.0,93,0.04,,---,0.17,VWS V14.01,2013-04-15 10:55:00,
2013-04-15 07:00:00,56.0,54.0,30.00,North,357,0.0,2.0,93,0.04,,---,0.17,VWS V14.01,2013-04-15 11:00:00,
2013-04-15 07:05:00,56.0,54.0,30.01,North,357,0.0,3.0,93,0.04,,---,0.17,VWS V14.01,2013-04-15 11:05:00,
2013-04-15 07:10:00,56.0,54.0,30.01,North,357,1.0,3.0,93,0.04,,---,0.17,VWS V14.01,2013-04-15 11:10:00,
2013-04-15 07:15:00,56.2,54.2,30.01,North,357,0.0,3.0,93,0.05,,---,0.18,VWS V14.01,2013-04-15 11:15:00,
2013-04-15 07:20:00,56.2,54.2,30.01,North,357,0.0,1.0,93,0.05,,---,0.18,VWS V14.01,2013-04-15 11:20:00,
2013-04-15 07:25:00,56.2,54.2,30.01,North,357,0.0,2.0,93,0.05,,---,0.18,VWS V14.01,2013-04-15 11:25:00,
2013-04-15 07:30:00,56.2,54.5,30.01,North,357,0.0,2.0,94,0.06,,---,0.19,VWS V14.01,2013-04-15 11:30:00,
2013-04-15 07:35:00,56.2,54.5,30.01,North,357,0.0,1.0,94,0.06,,---,0.20,VWS V14.01,2013-04-15 11:35:00,
2013-04-15 07:40:00,56.2,54.5,30.01,North,357,0.0,1.0,94,0.06,,---,0.20,VWS V14.01,2013-04-15 11:40:00,
2013-04-15 07:45:00,56.3,54.6,30.02,North,357,0.0,1.0,94,0.06,,---,0.20,VWS V14.01,2013-04-15 11:45:00,
2013-04-15 07:50:00,56.3,54.6,30.02,North,357,0.0,0.0,94,0.04,,---,0.20,VWS V14.01,2013-04-15 11:50:00,
2013-04-15 07:55:00,56.3,54.6,30.02,North,357,0.0,0.0,94,0.05,,---,0.21,VWS V14.01,2013-04-15 11:55:00,
2013-04-15 08:00:00,56.5,54.8,30.02,North,357,0.0,0.0,94,0.06,,---,0.22,VWS V14.01,2013-04-15 12:00:00,
2013-04-15 08:05:00,56.5,54.8,30.02,North,357,0.0,0.0,94,0.05,,---,0.22,VWS V14.01,2013-04-15 12:05:00,
2013-04-15 08:10:00,56.5,54.8,30.02,North,357,0.0,1.0,94,0.06,,---,0.23,VWS V14.01,2013-04-15 12:10:00,
2013-04-15 08:15:00,56.6,54.9,30.03,West,266,2.0,2.0,94,0.06,,---,0.23,VWS V14.01,2013-04-15 12:15:00,
2013-04-15 08:20:00,56.6,54.9,30.03,West,267,0.0,1.0,94,0.06,,---,0.24,VWS V14.01,2013-04-15 12:20:00,
2013-04-15 08:25:00,56.7,55.0,30.03,SW,222,0.0,2.0,94,0.06,,---,0.24,VWS V14.01,2013-04-15 12:25:00,
2013-04-15 08:30:00,56.7,55.0,30.03,SW,222,0.0,2.0,94,0.07,,---,0.25,VWS V14.01,2013-04-15 12:30:00,
2013-04-15 08:35:00,56.7,55.0,30.03,SW,222,0.0,1.0,94,0.06,,---,0.25,VWS V14.01,2013-04-15 12:35:00,
2013-04-15 08:40:00,56.9,55.2,30.03,SW,222,0.0,1.0,94,0.06,,---,0.25,VWS V14.01,2013-04-15 12:40:00,
2013-04-15 08:45:00,56.9,55.2,30.03,SW,222,0.0,1.0,94,0.06,,---,0.25,VWS V14.01,2013-04-15 12:45:00,
2013-04-15 08:50:00,57.0,55.3,30.03,SW,222,0.0,2.0,94,0.05,,---,0.25,VWS V14.01,2013-04-15 12:50:00,
2013-04-15 08:55:00,57.2,55.5,30.03,SW,222,0.0,2.0,94,0.05,,---,0.25,VWS V14.01,2013-04-15 12:55:00,
2013-04-15 09:00:00,57.2,55.5,30.03,SW,222,1.0,2.0,94,0.05,,---,0.25,VWS V14.01,2013-04-15 13:00:00,
2013-04-15 09:05:00,57.2,55.5,30.04,SW,222,0.0,1.0,94,0.03,,---,0.25,VWS V14.01,2013-04-15 13:05:00,
2013-04-15 09:10:00,57.0,55.3,30.04,ENE,75,1.0,2.0,94,0.03,,---,0.25,VWS V14.01,2013-04-15 13:10:00,
2013-04-15 09:15:00,57.0,55.3,30.04,ENE,75,0.0,2.0,94,0.04,,---,0.26,VWS V14.01,2013-04-15 13:15:00,
2013-04-15 09:20:00,57.0,55.3,30.04,ENE,75,0.0,0.0,94,0.02,,---,0.26,VWS V14.01,2013-04-15 13:20:00,
2013-04-15 09:25:00,57.0,55.3,30.04,ENE,75,0.0,1.0,94,0.02,,---,0.26,VWS V14.01,2013-04-15 13:25:00,
2013-04-15 09:30:00,57.0,55.3,30.04,ENE,75,0.0,1.0,94,0.02,,---,0.26,VWS V14.01,2013-04-15 13:30:00,
2013-04-15 09:35:00,56.9,55.5,30.05,ENE,75,0.0,0.0,95,0.01,,---,0.26,VWS V14.01,2013-04-15 13:35:00,
2013-04-15 09:40:00,56.9,55.5,30.05,ENE,75,0.0,1.0,95,0.01,,---,0.26,VWS V14.01,2013-04-15 13:40:00,
2013-04-15 09:45:00,56.9,55.5,30.05,ENE,75,0.0,1.0,95,0.01,,---,0.26,VWS V14.01,2013-04-15 13:45:00,
2013-04-15 09:50:00,56.9,55.5,30.05,ENE,75,0.0,0.0,95,0.01,,---,0.26,VWS V14.01,2013-04-15 13:50:00,
2013-04-15 09:55:00,56.9,55.5,30.05,ENE,75,0.0,1.0,95,0.01,,---,0.26,VWS V14.01,2013-04-15 13:55:00,
2013-04-15 10:00:00,56.9,55.5,30.05,ENE,75,0.0,1.0,95,0.01,,---,0.26,VWS V14.01,2013-04-15 14:00:00,
2013-04-15 10:05:00,56.9,55.5,30.05,ENE,75,0.0,1.0,95,0.01,,---,0.26,VWS V14.01,2013-04-15 14:05:00,
2013-04-15 10:10:00,57.0,55.6,30.05,ENE,75,0.0,2.0,95,0.01,,---,0.26,VWS V14.01,2013-04-15 14:10:00,
2013-04-15 10:15:00,57.2,55.8,30.05,ENE,75,0.0,2.0,95,0.01,,---,0.26,VWS V14.01,2013-04-15 14:15:00,
2013-04-15 10:20:00,57.3,55.9,30.05,ENE,75,0.0,1.0,95,0.00,,---,0.26,VWS V14.01,2013-04-15 14:20:00,
2013-04-15 10:25:00,57.5,56.1,30.05,ENE,75,0.0,2.0,95,0.00,,---,0.26,VWS V14.01,2013-04-15 14:25:00,
2013-04-15 10:30:00,57.5,56.1,30.06,ENE,75,0.0,2.0,95,0.00,,---,0.26,VWS V14.01,2013-04-15 14:30:00,
2013-04-15 10:35:00,57.5,56.1,30.06,ENE,75,0.0,1.0,95,0.00,,---,0.26,VWS V14.01,2013-04-15 14:35:00,
2013-04-15 10:40:00,57.5,56.1,30.05,ENE,75,0.0,2.0,95,0.00,,---,0.26,VWS V14.01,2013-04-15 14:40:00,
2013-04-15 10:45:00,57.5,56.1,30.06,ENE,75,0.0,2.0,95,0.00,,---,0.26,VWS V14.01,2013-04-15 14:45:00,
2013-04-15 10:50:00,57.5,56.1,30.06,ENE,75,0.0,1.0,95,0.00,,---,0.26,VWS V14.01,2013-04-15 14:50:00,
2013-04-15 10:55:00,57.5,56.1,30.06,ENE,75,0.0,1.0,95,0.00,,---,0.26,VWS V14.01,2013-04-15 14:55:00,
2013-04-15 11:00:00,57.6,56.2,30.06,North,5,0.0,3.0,95,0.00,,---,0.26,VWS V14.01,2013-04-15 15:00:00,
2013-04-15 11:05:00,57.6,56.2,30.07,North,5,0.0,0.0,95,0.00,,---,0.26,VWS V14.01,2013-04-15 15:05:00,
2013-04-15 11:10:00,57.6,56.2,30.07,North,10,0.0,2.0,95,0.00,,---,0.26,VWS V14.01,2013-04-15 15:10:00,
2013-04-15 11:15:00,57.6,56.2,30.07,North,10,0.0,2.0,95,0.00,,---,0.26,VWS V14.01,2013-04-15 15:15:00,
2013-04-15 11:20:00,57.8,56.4,30.07,North,10,0.0,0.0,95,0.00,,---,0.26,VWS V14.01,2013-04-15 15:20:00,
2013-04-15 11:25:00,58.0,56.6,30.07,North,10,0.0,0.0,95,0.00,,---,0.26,VWS V14.01,2013-04-15 15:25:00,
2013-04-15 11:30:00,58.1,56.7,30.07,NNW,339,0.0,2.0,95,0.00,,---,0.26,VWS V14.01,2013-04-15 15:30:00,
2013-04-15 11:35:00,58.3,56.9,30.07,North,6,0.0,2.0,95,0.00,,---,0.26,VWS V14.01,2013-04-15 15:35:00,
2013-04-15 11:40:00,58.4,57.0,30.07,North,6,0.0,2.0,95,0.00,,---,0.26,VWS V14.01,2013-04-15 15:40:00,
2013-04-15 11:45:00,58.4,57.0,30.07,North,6,0.0,2.0,95,0.00,,---,0.26,VWS V14.01,2013-04-15 15:45:00,
2013-04-15 11:50:00,58.3,56.9,30.07,North,6,0.0,1.0,95,0.00,,---,0.26,VWS V14.01,2013-04-15 15:50:00,
2013-04-15 11:55:00,58.4,57.0,30.07,North,6,0.0,1.0,95,0.00,,---,0.26,VWS V14.01,2013-04-15 15:55:00,
2013-04-15 12:00:00,58.6,57.2,30.07,North,6,0.0,1.0,95,0.00,,---,0.26,VWS V14.01,2013-04-15 16:00:00,
2013-04-15 12:05:00,58.6,57.2,30.07,ENE,75,0.0,6.0,95,0.00,,---,0.26,VWS V14.01,2013-04-15 16:05:00,
2013-04-15 12:10:00,58.7,57.0,30.07,North,1,0.0,6.0,94,0.00,,---,0.26,VWS V14.01,2013-04-15 16:10:00,
2013-04-15 12:15:00,58.9,57.5,30.07,North,351,0.0,6.0,95,0.00,,---,0.26,VWS V14.01,2013-04-15 16:15:00,
2013-04-15 12:20:00,59.0,57.3,30.07,East,97,1.0,3.0,94,0.00,,---,0.26,VWS V14.01,2013-04-15 16:20:00,
2013-04-15 12:25:00,59.2,57.5,30.07,North,352,4.0,4.0,94,0.00,,---,0.26,VWS V14.01,2013-04-15 16:25:00,
2013-04-15 12:30:00,59.9,58.2,30.07,ENE,58,0.0,4.0,94,0.00,,---,0.26,VWS V14.01,2013-04-15 16:30:00,
2013-04-15 12:35:00,60.1,58.1,30.07,NW,322,0.0,3.0,93,0.00,,---,0.26,VWS V14.01,2013-04-15 16:35:00,
2013-04-15 12:40:00,60.4,58.4,30.07,NNW,330,0.0,4.0,93,0.00,,---,0.26,VWS V14.01,2013-04-15 16:40:00,
2013-04-15 12:45:00,60.5,58.2,30.07,SSW,212,0.0,4.0,92,0.00,,---,0.26,VWS V14.01,2013-04-15 16:45:00,
2013-04-15 12:50:00,60.5,58.2,30.07,NNW,348,0.0,1.0,92,0.00,,---,0.26,VWS V14.01,2013-04-15 16:50:00,
2013-04-15 12:55:00,60.4,57.8,30.07,North,349,0.0,2.0,91,0.00,,---,0.26,VWS V14.01,2013-04-15 16:55:00,
2013-04-15 13:00:00,60.4,57.5,30.08,North,357,0.0,2.0,90,0.00,,---,0.26,VWS V14.01,2013-04-15 17:00:00,
2013-04-15 13:05:00,60.5,57.6,30.08,North,357,0.0,1.0,90,0.00,,---,0.26,VWS V14.01,2013-04-15 17:05:00,
2013-04-15 13:10:00,60.5,57.2,30.08,North,357,0.0,2.0,89,0.00,,---,0.26,VWS V14.01,2013-04-15 17:10:00,
2013-04-15 13:15:00,60.9,57.6,30.08,North,357,0.0,2.0,89,0.00,,---,0.26,VWS V14.01,2013-04-15 17:15:00,
2013-04-15 13:21:00,61.0,57.7,30.08,North,357,0.0,1.0,89,0.00,,---,0.26,VWS V14.01,2013-04-15 17:21:00,
2013-04-15 13:24:00,61.2,57.6,30.08,North,4,1.0,3.0,88,0.00,,---,0.26,VWS V14.01,2013-04-15 17:24:00,
2013-04-15 13:29:00,61.3,57.4,30.08,North,357,0.0,3.0,87,0.00,,---,0.26,VWS V14.01,2013-04-15 17:29:00,
2013-04-15 13:34:00,61.5,57.6,30.08,North,351,0.0,3.0,87,0.00,,---,0.26,VWS V14.01,2013-04-15 17:34:00,
2013-04-15 13:39:00,61.6,57.4,30.08,North,4,0.0,5.0,86,0.00,,---,0.26,VWS V14.01,2013-04-15 17:39:00,
2013-04-15 13:44:00,61.8,57.2,30.09,North,4,0.0,5.0,85,0.00,,---,0.26,VWS V14.01,2013-04-15 17:44:00,
2013-04-15 13:49:00,61.8,56.9,30.09,North,4,0.0,1.0,84,0.00,,---,0.26,VWS V14.01,2013-04-15 17:49:00,
2013-04-15 13:55:00,61.6,56.4,30.09,North,10,0.0,5.0,83,0.00,,---,0.26,VWS V14.01,2013-04-15 17:55:00,
2013-04-15 14:00:00,61.6,56.4,30.09,NNW,343,3.0,5.0,83,0.00,,---,0.26,VWS V14.01,2013-04-15 18:00:00,
2013-04-15 14:05:00,61.6,56.4,30.09,North,355,0.0,2.0,83,0.00,,---,0.26,VWS V14.01,2013-04-15 18:05:00,
2013-04-15 14:10:00,61.8,56.6,30.09,North,355,0.0,2.0,83,0.00,,---,0.26,VWS V14.01,2013-04-15 18:10:00,
2013-04-15 14:15:00,61.8,56.6,30.09,NNE,30,4.0,7.0,83,0.00,,---,0.26,VWS V14.01,2013-04-15 18:15:00,
2013-04-15 14:20:00,61.6,56.4,30.09,North,353,0.0,5.0,83,0.00,,---,0.26,VWS V14.01,2013-04-15 18:20:00,
2013-04-15 14:25:00,61.8,56.6,30.09,North,359,0.0,5.0,83,0.00,,---,0.26,VWS V14.01,2013-04-15 18:25:00,
2013-04-15 14:29:00,61.8,56.6,30.09,North,359,0.0,5.0,83,0.00,,---,0.26,VWS V14.01,2013-04-15 18:29:00,
2013-04-15 14:34:00,61.8,56.6,30.09,NNW,329,0.0,4.0,83,0.00,,---,0.26,VWS V14.01,2013-04-15 18:34:00,
2013-04-15 14:39:00,61.8,56.6,30.09,NNE,29,0.0,4.0,83,0.00,,---,0.26,VWS V14.01,2013-04-15 18:39:00,
2013-04-15 14:44:00,62.0,56.8,30.09,NE,36,1.0,4.0,83,0.00,,---,0.26,VWS V14.01,2013-04-15 18:44:00,
2013-04-15 14:49:00,62.1,56.9,30.09,NE,36,0.0,1.0,83,0.00,,---,0.26,VWS V14.01,2013-04-15 18:49:00,
2013-04-15 14:54:00,62.3,57.1,30.09,NE,36,0.0,1.0,83,0.00,,---,0.26,VWS V14.01,2013-04-15 18:54:00,
2013-04-15 14:59:00,62.6,57.4,30.09,North,353,0.0,5.0,83,0.00,,---,0.26,VWS V14.01,2013-04-15 18:59:00,
2013-04-15 15:04:00,62.6,57.0,30.09,NNW,347,0.0,0.0,82,0.00,,---,0.26,VWS V14.01,2013-04-15 19:04:00,
2013-04-15 15:09:00,62.9,57.3,30.09,NNW,347,0.0,0.0,82,0.00,,---,0.26,VWS V14.01,2013-04-15 19:09:00,
2013-04-15 15:14:00,63.1,57.2,30.09,NNW,330,0.0,4.0,81,0.00,,---,0.26,VWS V14.01,2013-04-15 19:14:00,
2013-04-15 15:19:00,63.4,57.1,30.09,North,351,0.0,2.0,80,0.00,,---,0.26,VWS V14.01,2013-04-15 19:19:00,
2013-04-15 15:24:00,63.5,57.2,30.08,North,351,0.0,2.0,80,0.00,,---,0.26,VWS V14.01,2013-04-15 19:24:00,
2013-04-15 15:29:00,63.9,57.3,30.09,North,351,0.0,2.0,79,0.00,,---,0.26,VWS V14.01,2013-04-15 19:29:00,
2013-04-15 15:34:00,64.0,57.4,30.09,North,351,0.0,1.0,79,0.00,,---,0.26,VWS V14.01,2013-04-15 19:34:00,
2013-04-15 15:39:00,64.3,57.3,30.09,North,351,0.0,1.0,78,0.00,,---,0.26,VWS V14.01,2013-04-15 19:39:00,
2013-04-15 15:44:00,64.3,57.3,30.08,SSE,149,0.0,2.0,78,0.00,,---,0.26,VWS V14.01,2013-04-15 19:44:00,
2013-04-15 15:50:00,64.5,57.1,30.08,SSE,149,0.0,1.0,77,0.00,,---,0.26,VWS V14.01,2013-04-15 19:50:00,
2013-04-15 15:55:00,64.5,57.1,30.08,SSE,149,0.0,1.0,77,0.00,,---,0.26,VWS V14.01,2013-04-15 19:55:00,
2013-04-15 15:57:00,64.5,56.8,30.08,SSE,149,0.0,1.0,76,0.00,,---,0.26,VWS V14.01,2013-04-15 19:57:00,
2013-04-15 16:01:00,64.7,57.0,30.08,SSE,149,0.0,0.0,76,0.00,,---,0.26,VWS V14.01,2013-04-15 20:01:00,
2013-04-15 16:02:00,64.7,57.0,30.08,SSE,149,0.0,0.0,76,0.00,,---,0.26,VWS V14.01,2013-04-15 20:02:00,
2013-04-15 16:07:00,64.8,57.1,30.08,SSE,149,0.0,0.0,76,0.00,,---,0.26,VWS V14.01,2013-04-15 20:07:00,
2013-04-15 16:12:00,64.8,57.1,30.08,North,9,0.0,2.0,76,0.00,,---,0.26,VWS V14.01,2013-04-15 20:12:00,
2013-04-15 16:17:00,64.8,57.1,30.08,NNW,346,2.0,4.0,76,0.00,,---,0.26,VWS V14.01,2013-04-15 20:17:00,
2013-04-15 16:22:00,64.8,57.1,30.08,NE,35,0.0,4.0,76,0.00,,---,0.26,VWS V14.01,2013-04-15 20:22:00,
2013-04-15 16:27:00,64.8,57.1,30.08,North,2,0.0,5.0,76,0.00,,---,0.26,VWS V14.01,2013-04-15 20:27:00,
2013-04-15 16:32:00,64.7,57.0,30.08,NNW,329,1.0,1.0,76,0.00,,---,0.26,VWS V14.01,2013-04-15 20:32:00,
2013-04-15 16:37:00,64.8,57.4,30.08,NNW,340,0.0,5.0,77,0.00,,---,0.26,VWS V14.01,2013-04-15 20:37:00,
2013-04-15 16:42:00,64.8,57.4,30.08,NNW,347,0.0,5.0,77,0.00,,---,0.26,VWS V14.01,2013-04-15 20:42:00,
2013-04-15 16:47:00,64.8,57.1,30.08,NNW,347,0.0,0.0,76,0.00,,---,0.26,VWS V14.01,2013-04-15 20:47:00,
2013-04-15 16:52:00,64.8,57.1,30.08,NNW,347,0.0,1.0,76,0.00,,---,0.26,VWS V14.01,2013-04-15 20:52:00,
2013-04-15 16:57:00,64.8,57.1,30.08,NNW,347,0.0,1.0,76,0.00,,---,0.26,VWS V14.01,2013-04-15 20:57:00,
2013-04-15 17:02:00,64.8,57.1,30.09,NNW,347,0.0,0.0,76,0.00,,---,0.26,VWS V14.01,2013-04-15 21:02:00,
2013-04-15 17:07:00,64.8,57.1,30.09,NNW,347,0.0,1.0,76,0.00,,---,0.26,VWS V14.01,2013-04-15 21:07:00,
2013-04-15 17:12:00,64.8,57.1,30.09,WSW,256,0.0,3.0,76,0.00,,---,0.26,VWS V14.01,2013-04-15 21:12:00,
2013-04-15 17:17:00,65.0,57.3,30.09,WSW,257,0.0,0.0,76,0.00,,---,0.26,VWS V14.01,2013-04-15 21:17:00,
2013-04-15 17:22:00,65.0,57.3,30.09,WSW,257,0.0,1.0,76,0.00,,---,0.26,VWS V14.01,2013-04-15 21:22:00,
2013-04-15 17:27:00,64.8,57.1,30.09,WSW,257,0.0,1.0,76,0.00,,---,0.26,VWS V14.01,2013-04-15 21:27:00,
2013-04-15 17:32:00,64.8,57.1,30.09,NNW,345,0.0,1.0,76,0.00,,---,0.26,VWS V14.01,2013-04-15 21:32:00,
2013-04-15 17:37:00,65.0,57.3,30.09,NNW,347,1.0,3.0,76,0.00,,---,0.26,VWS V14.01,2013-04-15 21:37:00,
2013-04-15 17:42:00,65.0,57.6,30.09,North,8,0.0,4.0,77,0.00,,---,0.26,VWS V14.01,2013-04-15 21:42:00,
2013-04-15 17:47:00,65.0,57.3,30.09,NNE,20,1.0,4.0,76,0.00,,---,0.26,VWS V14.01,2013-04-15 21:47:00,
2013-04-15 17:52:00,65.0,57.3,30.09,NNE,17,0.0,4.0,76,0.00,,---,0.26,VWS V14.01,2013-04-15 21:52:00,
2013-04-15 17:57:00,65.0,57.3,30.09,North,2,0.0,4.0,76,0.00,,---,0.26,VWS V14.01,2013-04-15 21:57:00,
2013-04-15 18:02:00,65.0,57.3,30.09,North,2,0.0,1.0,76,0.00,,---,0.26,VWS V14.01,2013-04-15 22:02:00,
2013-04-15 18:07:00,65.0,57.3,30.09,North,359,0.0,2.0,76,0.00,,---,0.26,VWS V14.01,2013-04-15 22:07:00,
2013-04-15 18:12:00,64.8,57.1,30.09,North,355,0.0,2.0,76,0.00,,---,0.26,VWS V14.01,2013-04-15 22:12:00,
2013-04-15 18:17:00,64.8,57.1,30.09,North,355,0.0,0.0,76,0.00,,---,0.26,VWS V14.01,2013-04-15 22:17:00,
2013-04-15 18:22:00,64.8,57.1,30.10,North,354,0.0,5.0,76,0.00,,---,0.26,VWS V14.01,2013-04-15 22:22:00,
2013-04-15 18:27:00,64.8,57.1,30.10,North,8,3.0,5.0,76,0.00,,---,0.26,VWS V14.01,2013-04-15 22:27:00,
2013-04-15 18:32:00,64.7,57.0,30.10,NNE,29,0.0,2.0,76,0.00,,---,0.26,VWS V14.01,2013-04-15 22:32:00,
2013-04-15 18:37:00,64.7,57.0,30.10,North,1,0.0,4.0,76,0.00,,---,0.26,VWS V14.01,2013-04-15 22:37:00,
2013-04-15 18:42:00,64.5,56.8,30.10,NNW,340,0.0,4.0,76,0.00,,---,0.26,VWS V14.01,2013-04-15 22:42:00,
2013-04-15 18:47:00,64.5,56.8,30.10,NNE,19,2.0,3.0,76,0.00,,---,0.26,VWS V14.01,2013-04-15 22:47:00,
2013-04-15 18:52:00,64.5,56.8,30.10,NNE,19,0.0,3.0,76,0.00,,---,0.26,VWS V14.01,2013-04-15 22:52:00,
2013-04-15 18:57:00,64.5,56.8,30.10,NNE,16,1.0,3.0,76,0.00,,---,0.26,VWS V14.01,2013-04-15 22:57:00,
2013-04-15 19:02:00,64.5,57.1,30.10,NNE,16,0.0,2.0,77,0.00,,---,0.26,VWS V14.01,2013-04-15 23:02:00,
2013-04-15 19:07:00,64.3,57.0,30.10,North,2,3.0,3.0,77,0.00,,---,0.26,VWS V14.01,2013-04-15 23:07:00,
2013-04-15 19:12:00,64.3,57.0,30.11,North,2,0.0,3.0,77,0.00,,---,0.26,VWS V14.01,2013-04-15 23:12:00,
2013-04-15 19:17:00,64.3,57.0,30.11,North,2,0.0,1.0,77,0.00,,---,0.26,VWS V14.01,2013-04-15 23:17:00,
2013-04-15 19:22:00,64.2,56.8,30.11,North,2,0.0,1.0,77,0.00,,---,0.26,VWS V14.01,2013-04-15 23:22:00,
2013-04-15 19:27:00,64.2,56.8,30.11,North,2,0.0,3.0,77,0.00,,---,0.26,VWS V14.01,2013-04-15 23:27:00,
2013-04-15 19:32:00,64.0,57.0,30.11,North,2,0.0,1.0,78,0.00,,---,0.26,VWS V14.01,2013-04-15 23:32:00,
2013-04-15 19:37:00,64.0,57.0,30.11,North,2,0.0,1.0,78,0.00,,---,0.26,VWS V14.01,2013-04-15 23:37:00,
2013-04-15 19:42:00,63.9,56.9,30.12,North,2,0.0,1.0,78,0.00,,---,0.26,VWS V14.01,2013-04-15 23:42:00,
2013-04-15 19:47:00,63.9,57.3,30.12,North,2,0.0,0.0,79,0.00,,---,0.26,VWS V14.01,2013-04-15 23:47:00,
2013-04-15 19:52:00,63.7,57.1,30.12,North,2,0.0,2.0,79,0.00,,---,0.26,VWS V14.01,2013-04-15 23:52:00,
2013-04-15 19:57:00,63.5,56.9,30.12,North,1,3.0,4.0,79,0.00,,---,0.26,VWS V14.01,2013-04-15 23:57:00,
2013-04-15 20:02:00,63.4,56.8,30.12,North,1,1.0,3.0,79,0.00,,---,0.26,VWS V14.01,2013-04-16 00:02:00,
2013-04-15 20:07:00,63.2,56.9,30.12,North,1,0.0,3.0,80,0.00,,---,0.26,VWS V14.01,2013-04-16 00:07:00,
2013-04-15 20:12:00,63.1,56.8,30.12,North,1,0.0,3.0,80,0.00,,---,0.26,VWS V14.01,2013-04-16 00:12:00,
2013-04-15 20:17:00,62.9,56.6,30.12,North,1,0.0,1.0,80,0.00,,---,0.26,VWS V14.01,2013-04-16 00:17:00,
2013-04-15 20:22:00,62.9,56.6,30.13,North,1,0.0,3.0,80,0.00,,---,0.26,VWS V14.01,2013-04-16 00:22:00,
2013-04-15 20:27:00,62.7,56.5,30.13,North,1,2.0,3.0,80,0.00,,---,0.26,VWS V14.01,2013-04-16 00:27:00,
2013-04-15 20:32:00,62.6,56.3,30.13,North,1,0.0,1.0,80,0.00,,---,0.26,VWS V14.01,2013-04-16 00:32:00,
2013-04-15 20:37:00,62.6,56.3,30.13,North,1,1.0,3.0,80,0.00,,---,0.26,VWS V14.01,2013-04-16 00:37:00,
2013-04-15 20:42:00,62.4,56.5,30.14,North,1,0.0,3.0,81,0.00,,---,0.26,VWS V14.01,2013-04-16 00:42:00,
2013-04-15 20:47:00,62.3,56.4,30.14,North,359,0.0,0.0,81,0.00,,---,0.26,VWS V14.01,2013-04-16 00:47:00,
2013-04-15 20:52:00,62.3,56.4,30.14,North,359,0.0,1.0,81,0.00,,---,0.26,VWS V14.01,2013-04-16 00:52:00,
2013-04-15 20:57:00,62.3,56.4,30.14,North,359,0.0,1.0,81,0.00,,---,0.26,VWS V14.01,2013-04-16 00:57:00,
2013-04-15 21:02:00,62.1,56.2,30.15,North,359,0.0,1.0,81,0.00,,---,0.26,VWS V14.01,2013-04-16 01:02:00,
2013-04-15 21:07:00,62.1,56.2,30.15,North,359,0.0,2.0,81,0.00,,---,0.26,VWS V14.01,2013-04-16 01:07:00,
2013-04-15 21:12:00,62.0,56.5,30.15,North,359,0.0,2.0,82,0.00,,---,0.26,VWS V14.01,2013-04-16 01:12:00,
2013-04-15 21:17:00,62.0,56.5,30.15,North,359,1.0,1.0,82,0.00,,---,0.26,VWS V14.01,2013-04-16 01:17:00,
2013-04-15 21:22:00,61.8,56.2,30.16,North,359,0.0,2.0,82,0.00,,---,0.26,VWS V14.01,2013-04-16 01:22:00,
2013-04-15 21:27:00,61.8,56.2,30.16,North,359,0.0,2.0,82,0.00,,---,0.26,VWS V14.01,2013-04-16 01:27:00,
2013-04-15 21:32:00,61.6,56.1,30.16,North,359,0.0,1.0,82,0.00,,---,0.26,VWS V14.01,2013-04-16 01:32:00,
2013-04-15 21:37:00,61.6,56.1,30.16,North,359,1.0,2.0,82,0.00,,---,0.26,VWS V14.01,2013-04-16 01:37:00,
2013-04-15 21:42:00,61.5,56.0,30.16,North,359,0.0,3.0,82,0.00,,---,0.26,VWS V14.01,2013-04-16 01:42:00,
2013-04-15 21:47:00,61.5,56.3,30.16,North,359,0.0,1.0,83,0.00,,---,0.26,VWS V14.01,2013-04-16 01:47:00,
2013-04-15 21:52:00,61.3,56.1,30.16,NNE,14,2.0,4.0,83,0.00,,---,0.26,VWS V14.01,2013-04-16 01:52:00,
2013-04-15 21:57:00,61.3,56.1,30.17,NNE,14,1.0,4.0,83,0.00,,---,0.26,VWS V14.01,2013-04-16 01:57:00,
2013-04-15 22:02:00,61.3,56.1,30.17,NNE,14,0.0,0.0,83,0.00,,---,0.26,VWS V14.01,2013-04-16 02:02:00,
2013-04-15 22:07:00,61.2,56.0,30.16,NNE,14,0.0,0.0,83,0.00,,---,0.26,VWS V14.01,2013-04-16 02:07:00,
2013-04-15 22:12:00,61.2,56.0,30.17,NNE,14,0.0,2.0,83,0.00,,---,0.26,VWS V14.01,2013-04-16 02:12:00,
2013-04-15 22:17:00,61.0,55.8,30.17,NNE,14,0.0,0.0,83,0.00,,---,0.26,VWS V14.01,2013-04-16 02:17:00,
2013-04-15 22:22:00,61.0,55.8,30.17,NNE,14,0.0,1.0,83,0.00,,---,0.26,VWS V14.01,2013-04-16 02:22:00,
2013-04-15 22:27:00,60.9,55.7,30.17,NNE,14,0.0,1.0,83,0.00,,---,0.26,VWS V14.01,2013-04-16 02:27:00,
2013-04-15 22:32:00,60.9,55.7,30.17,NNE,14,0.0,0.0,83,0.00,,---,0.26,VWS V14.01,2013-04-16 02:32:00,
2013-04-15 22:37:00,60.7,55.5,30.18,NNE,14,0.0,0.0,83,0.00,,---,0.26,VWS V14.01,2013-04-16 02:37:00,
2013-04-15 22:42:00,60.5,55.3,30.17,NNE,14,0.0,0.0,83,0.00,,---,0.26,VWS V14.01,2013-04-16 02:42:00,
2013-04-15 22:47:00,60.5,55.7,30.17,NNE,14,0.0,0.0,84,0.00,,---,0.26,VWS V14.01,2013-04-16 02:47:00,
2013-04-15 22:52:00,60.4,55.5,30.17,NNE,14,0.0,1.0,84,0.00,,---,0.26,VWS V14.01,2013-04-16 02:52:00,
2013-04-15 22:57:00,60.4,55.5,30.17,NNE,14,0.0,1.0,84,0.00,,---,0.26,VWS V14.01,2013-04-16 02:57:00,
2013-04-15 23:02:00,60.2,55.3,30.17,NNE,14,0.0,0.0,84,0.00,,---,0.26,VWS V14.01,2013-04-16 03:02:00,
2013-04-15 23:07:00,60.1,55.3,30.18,NNE,14,0.0,0.0,84,0.00,,---,0.26,VWS V14.01,2013-04-16 03:07:00,
2013-04-15 23:12:00,59.9,55.1,30.17,NNE,14,0.0,0.0,84,0.00,,---,0.26,VWS V14.01,2013-04-16 03:12:00,
2013-04-15 23:17:00,59.9,55.4,30.18,NNE,14,0.0,0.0,85,0.00,,---,0.26,VWS V14.01,2013-04-16 03:17:00,
2013-04-15 23:22:00,59.8,55.3,30.18,NNE,14,0.0,1.0,85,0.00,,---,0.26,VWS V14.01,2013-04-16 03:22:00,
2013-04-15 23:27:00,59.8,55.6,30.18,NNE,14,0.0,1.0,86,0.00,,---,0.26,VWS V14.01,2013-04-16 03:27:00,
2013-04-15 23:31:00,59.6,55.4,30.18,NNE,14,0.0,1.0,86,0.00,,---,0.26,VWS V14.01,2013-04-16 03:31:00,
2013-04-15 23:36:00,59.6,55.4,30.18,NNE,14,0.0,2.0,86,0.00,,---,0.26,VWS V14.01,2013-04-16 03:36:00,
2013-04-15 23:41:00,59.5,55.3,30.18,NNE,14,0.0,2.0,86,0.00,,---,0.26,VWS V14.01,2013-04-16 03:41:00,
2013-04-15 23:46:00,59.5,55.3,30.18,NNE,14,0.0,0.0,86,0.00,,---,0.26,VWS V14.01,2013-04-16 03:46:00,
2013-04-15 23:51:00,59.5,55.3,30.18,NNE,14,0.0,1.0,86,0.00,,---,0.26,VWS V14.01,2013-04-16 03:51:00,
2013-04-15 23:56:00,59.3,55.4,30.18,NNW,332,0.0,3.0,87,0.00,,---,0.26,VWS V14.01,2013-04-16 03:56:00,